sensor_id;sensor_type;location;lat;lon;timestamp;temperature;humidity
9542;DHT22;4809;48.224;8.572;2022-09-09T00:04:33;14.20;73.00
9542;DHT22;4809;48.224;8.572;2022-09-09T00:09:58;14.10;72.90
9542;DHT22;4809;48.224;8.572;2022-09-09T00:12:47;14.10;72.80
9542;DHT22;4809;48.224;8.572;2022-09-09T00:15:18;14.10;72.90
9542;DHT22;4809;48.224;8.572;2022-09-09T00:21:02;14.00;72.80
9542;DHT22;4809;48.224;8.572;2022-09-09T00:23:35;14.00;73.50
9542;DHT22;4809;48.224;8.572;2022-09-09T00:26:13;14.00;73.20
9542;DHT22;4809;48.224;8.572;2022-09-09T00:31:17;13.80;74.30
9542;DHT22;4809;48.224;8.572;2022-09-09T00:33:44;13.80;73.80
9542;DHT22;4809;48.224;8.572;2022-09-09T00:36:14;13.80;73.60
9542;DHT22;4809;48.224;8.572;2022-09-09T00:38:49;13.80;73.80
9542;DHT22;4809;48.224;8.572;2022-09-09T00:44:31;13.70;73.90
9542;DHT22;4809;48.224;8.572;2022-09-09T00:55:19;13.60;74.60
9542;DHT22;4809;48.224;8.572;2022-09-09T00:57:36;13.50;74.60
9542;DHT22;4809;48.224;8.572;2022-09-09T01:00:22;13.50;74.80
9542;DHT22;4809;48.224;8.572;2022-09-09T01:06:00;13.50;75.00
9542;DHT22;4809;48.224;8.572;2022-09-09T01:11:28;13.40;75.40
9542;DHT22;4809;48.224;8.572;2022-09-09T01:14:05;13.30;75.50
9542;DHT22;4809;48.224;8.572;2022-09-09T01:16:35;13.30;75.60
9542;DHT22;4809;48.224;8.572;2022-09-09T01:19:03;13.30;75.70
9542;DHT22;4809;48.224;8.572;2022-09-09T01:22:03;13.30;75.80
9542;DHT22;4809;48.224;8.572;2022-09-09T01:24:40;13.30;75.90
9542;DHT22;4809;48.224;8.572;2022-09-09T01:27:08;13.40;76.00
9542;DHT22;4809;48.224;8.572;2022-09-09T01:29:36;13.40;76.00
9542;DHT22;4809;48.224;8.572;2022-09-09T01:32:37;13.30;76.40
9542;DHT22;4809;48.224;8.572;2022-09-09T01:34:50;13.20;76.80
9542;DHT22;4809;48.224;8.572;2022-09-09T01:37:16;13.30;76.90
9542;DHT22;4809;48.224;8.572;2022-09-09T01:39:43;13.20;77.50
9542;DHT22;4809;48.224;8.572;2022-09-09T01:42:12;13.10;77.70
9542;DHT22;4809;48.224;8.572;2022-09-09T01:44:38;13.20;77.40
9542;DHT22;4809;48.224;8.572;2022-09-09T01:47:05;13.30;77.20
9542;DHT22;4809;48.224;8.572;2022-09-09T01:49:31;13.40;76.80
9542;DHT22;4809;48.224;8.572;2022-09-09T01:51:58;13.50;76.50
9542;DHT22;4809;48.224;8.572;2022-09-09T01:54:26;13.50;76.70
9542;DHT22;4809;48.224;8.572;2022-09-09T01:57:15;13.50;76.40
9542;DHT22;4809;48.224;8.572;2022-09-09T02:00:04;13.50;76.20
9542;DHT22;4809;48.224;8.572;2022-09-09T02:03:00;13.60;76.50
9542;DHT22;4809;48.224;8.572;2022-09-09T02:05:36;13.60;75.80
9542;DHT22;4809;48.224;8.572;2022-09-09T02:08:07;13.70;76.60
9542;DHT22;4809;48.224;8.572;2022-09-09T02:11:01;13.70;76.90
9542;DHT22;4809;48.224;8.572;2022-09-09T02:13:25;13.70;76.90
9542;DHT22;4809;48.224;8.572;2022-09-09T02:18:35;13.80;77.60
9542;DHT22;4809;48.224;8.572;2022-09-09T02:21:02;13.80;77.70
9542;DHT22;4809;48.224;8.572;2022-09-09T02:23:28;13.80;78.30
9542;DHT22;4809;48.224;8.572;2022-09-09T02:25:57;13.80;78.60
9542;DHT22;4809;48.224;8.572;2022-09-09T02:28:26;13.80;79.00
9542;DHT22;4809;48.224;8.572;2022-09-09T02:30:54;13.90;78.40
9542;DHT22;4809;48.224;8.572;2022-09-09T02:33:24;13.80;78.70
9542;DHT22;4809;48.224;8.572;2022-09-09T02:35:51;13.80;78.70
9542;DHT22;4809;48.224;8.572;2022-09-09T02:38:19;13.80;79.50
9542;DHT22;4809;48.224;8.572;2022-09-09T02:40:46;13.80;80.60
9542;DHT22;4809;48.224;8.572;2022-09-09T02:43:14;13.80;81.20
9542;DHT22;4809;48.224;8.572;2022-09-09T02:45:48;13.80;81.60
9542;DHT22;4809;48.224;8.572;2022-09-09T02:48:36;13.90;82.80
9542;DHT22;4809;48.224;8.572;2022-09-09T02:51:09;14.00;83.10
9542;DHT22;4809;48.224;8.572;2022-09-09T02:53:50;13.90;82.30
9542;DHT22;4809;48.224;8.572;2022-09-09T02:56:23;13.80;83.00
9542;DHT22;4809;48.224;8.572;2022-09-09T02:58:54;13.70;84.00
9542;DHT22;4809;48.224;8.572;2022-09-09T03:01:20;13.80;84.30
9542;DHT22;4809;48.224;8.572;2022-09-09T03:03:46;13.70;84.30
9542;DHT22;4809;48.224;8.572;2022-09-09T03:06:12;13.70;84.70
9542;DHT22;4809;48.224;8.572;2022-09-09T03:08:38;13.70;85.10
9542;DHT22;4809;48.224;8.572;2022-09-09T03:11:04;13.60;86.40
9542;DHT22;4809;48.224;8.572;2022-09-09T03:13:29;13.60;85.40
9542;DHT22;4809;48.224;8.572;2022-09-09T03:15:55;13.60;85.40
9542;DHT22;4809;48.224;8.572;2022-09-09T03:18:21;13.60;85.40
9542;DHT22;4809;48.224;8.572;2022-09-09T03:20:47;13.50;85.00
9542;DHT22;4809;48.224;8.572;2022-09-09T03:23:16;13.40;85.20
9542;DHT22;4809;48.224;8.572;2022-09-09T03:25:49;13.40;85.50
9542;DHT22;4809;48.224;8.572;2022-09-09T03:28:15;13.30;85.50
9542;DHT22;4809;48.224;8.572;2022-09-09T03:30:41;13.30;86.30
9542;DHT22;4809;48.224;8.572;2022-09-09T03:33:07;13.20;86.10
9542;DHT22;4809;48.224;8.572;2022-09-09T03:35:32;13.20;86.30
9542;DHT22;4809;48.224;8.572;2022-09-09T03:37:58;13.10;86.20
9542;DHT22;4809;48.224;8.572;2022-09-09T03:40:23;13.10;86.40
9542;DHT22;4809;48.224;8.572;2022-09-09T03:42:49;13.10;86.00
9542;DHT22;4809;48.224;8.572;2022-09-09T03:45:15;13.10;86.20
9542;DHT22;4809;48.224;8.572;2022-09-09T03:47:40;13.00;86.80
9542;DHT22;4809;48.224;8.572;2022-09-09T03:50:07;13.10;87.00
9542;DHT22;4809;48.224;8.572;2022-09-09T03:52:38;13.10;87.50
9542;DHT22;4809;48.224;8.572;2022-09-09T03:55:05;13.00;86.50
9542;DHT22;4809;48.224;8.572;2022-09-09T03:57:31;13.00;87.20
9542;DHT22;4809;48.224;8.572;2022-09-09T03:59:57;13.10;87.50
9542;DHT22;4809;48.224;8.572;2022-09-09T04:02:23;13.10;88.00
9542;DHT22;4809;48.224;8.572;2022-09-09T04:04:49;13.00;87.80
9542;DHT22;4809;48.224;8.572;2022-09-09T04:07:15;12.90;88.20
9542;DHT22;4809;48.224;8.572;2022-09-09T04:09:41;13.00;87.80
9542;DHT22;4809;48.224;8.572;2022-09-09T04:12:07;13.00;87.40
9542;DHT22;4809;48.224;8.572;2022-09-09T04:14:32;13.00;87.20
9542;DHT22;4809;48.224;8.572;2022-09-09T04:16:58;13.00;87.00
9542;DHT22;4809;48.224;8.572;2022-09-09T04:19:25;13.10;87.30
9542;DHT22;4809;48.224;8.572;2022-09-09T04:21:51;13.00;87.50
9542;DHT22;4809;48.224;8.572;2022-09-09T04:24:17;13.00;88.00
9542;DHT22;4809;48.224;8.572;2022-09-09T04:26:43;13.00;87.80
9542;DHT22;4809;48.224;8.572;2022-09-09T04:29:09;13.00;88.10
9542;DHT22;4809;48.224;8.572;2022-09-09T04:31:35;13.00;88.50
9542;DHT22;4809;48.224;8.572;2022-09-09T04:34:00;13.00;88.70
9542;DHT22;4809;48.224;8.572;2022-09-09T04:36:31;13.00;88.60
9542;DHT22;4809;48.224;8.572;2022-09-09T04:38:57;13.00;88.50
9542;DHT22;4809;48.224;8.572;2022-09-09T04:41:23;13.00;88.50
9542;DHT22;4809;48.224;8.572;2022-09-09T04:43:49;13.00;88.70
9542;DHT22;4809;48.224;8.572;2022-09-09T04:46:15;12.90;89.10
9542;DHT22;4809;48.224;8.572;2022-09-09T04:48:43;12.90;89.50
9542;DHT22;4809;48.224;8.572;2022-09-09T04:51:12;12.80;89.60
9542;DHT22;4809;48.224;8.572;2022-09-09T04:53:38;12.70;89.60
9542;DHT22;4809;48.224;8.572;2022-09-09T04:56:14;12.60;89.10
9542;DHT22;4809;48.224;8.572;2022-09-09T04:58:40;12.60;89.70
9542;DHT22;4809;48.224;8.572;2022-09-09T05:01:15;12.70;89.40
9542;DHT22;4809;48.224;8.572;2022-09-09T05:03:42;12.70;89.00
9542;DHT22;4809;48.224;8.572;2022-09-09T05:06:12;12.80;89.20
9542;DHT22;4809;48.224;8.572;2022-09-09T05:08:40;12.80;89.40
9542;DHT22;4809;48.224;8.572;2022-09-09T05:11:23;12.80;89.50
9542;DHT22;4809;48.224;8.572;2022-09-09T05:13:50;12.80;89.70
9542;DHT22;4809;48.224;8.572;2022-09-09T05:16:16;12.90;89.50
9542;DHT22;4809;48.224;8.572;2022-09-09T05:18:43;13.00;89.00
9542;DHT22;4809;48.224;8.572;2022-09-09T05:21:10;13.00;90.00
9542;DHT22;4809;48.224;8.572;2022-09-09T05:23:35;13.00;89.70
9542;DHT22;4809;48.224;8.572;2022-09-09T05:26:03;13.10;89.60
9542;DHT22;4809;48.224;8.572;2022-09-09T05:28:29;13.10;89.70
9542;DHT22;4809;48.224;8.572;2022-09-09T05:30:59;13.10;89.30
9542;DHT22;4809;48.224;8.572;2022-09-09T05:33:30;13.20;89.50
9542;DHT22;4809;48.224;8.572;2022-09-09T05:36:01;13.30;89.70
9542;DHT22;4809;48.224;8.572;2022-09-09T05:38:28;13.30;89.20
9542;DHT22;4809;48.224;8.572;2022-09-09T05:40:54;13.50;89.00
9542;DHT22;4809;48.224;8.572;2022-09-09T05:43:21;13.50;88.90
9542;DHT22;4809;48.224;8.572;2022-09-09T05:45:48;13.50;89.20
9542;DHT22;4809;48.224;8.572;2022-09-09T05:48:14;13.50;88.90
9542;DHT22;4809;48.224;8.572;2022-09-09T05:50:43;13.60;88.60
9542;DHT22;4809;48.224;8.572;2022-09-09T05:53:17;13.60;88.60
9542;DHT22;4809;48.224;8.572;2022-09-09T05:55:43;13.60;89.00
9542;DHT22;4809;48.224;8.572;2022-09-09T05:58:10;13.60;88.90
9542;DHT22;4809;48.224;8.572;2022-09-09T06:00:36;13.60;88.70
9542;DHT22;4809;48.224;8.572;2022-09-09T06:03:03;13.60;88.80
9542;DHT22;4809;48.224;8.572;2022-09-09T06:05:29;13.60;88.80
9542;DHT22;4809;48.224;8.572;2022-09-09T06:07:55;13.70;89.00
9542;DHT22;4809;48.224;8.572;2022-09-09T06:10:21;13.70;89.20
9542;DHT22;4809;48.224;8.572;2022-09-09T06:12:47;13.70;88.80
9542;DHT22;4809;48.224;8.572;2022-09-09T06:15:13;13.80;89.10
9542;DHT22;4809;48.224;8.572;2022-09-09T06:17:38;13.80;89.10
9542;DHT22;4809;48.224;8.572;2022-09-09T06:20:05;13.90;88.80
9542;DHT22;4809;48.224;8.572;2022-09-09T06:22:31;14.00;89.00
9542;DHT22;4809;48.224;8.572;2022-09-09T06:24:56;14.10;88.20
9542;DHT22;4809;48.224;8.572;2022-09-09T06:27:22;14.20;88.40
9542;DHT22;4809;48.224;8.572;2022-09-09T06:29:48;14.30;88.00
9542;DHT22;4809;48.224;8.572;2022-09-09T06:32:13;14.40;87.40
9542;DHT22;4809;48.224;8.572;2022-09-09T06:34:39;14.40;87.80
9542;DHT22;4809;48.224;8.572;2022-09-09T06:37:05;14.50;87.80
9542;DHT22;4809;48.224;8.572;2022-09-09T06:39:32;14.50;87.50
9542;DHT22;4809;48.224;8.572;2022-09-09T06:41:57;14.50;87.90
9542;DHT22;4809;48.224;8.572;2022-09-09T06:44:24;14.50;87.90
9542;DHT22;4809;48.224;8.572;2022-09-09T06:46:52;14.50;87.50
9542;DHT22;4809;48.224;8.572;2022-09-09T06:49:18;14.60;87.60
9542;DHT22;4809;48.224;8.572;2022-09-09T06:51:43;14.70;88.00
9542;DHT22;4809;48.224;8.572;2022-09-09T06:54:10;14.80;88.10
9542;DHT22;4809;48.224;8.572;2022-09-09T06:56:38;14.90;87.70
9542;DHT22;4809;48.224;8.572;2022-09-09T06:59:07;14.90;87.30
9542;DHT22;4809;48.224;8.572;2022-09-09T07:01:36;14.90;87.10
9542;DHT22;4809;48.224;8.572;2022-09-09T07:04:03;14.80;87.60
9542;DHT22;4809;48.224;8.572;2022-09-09T07:06:38;14.80;87.80
9542;DHT22;4809;48.224;8.572;2022-09-09T07:09:08;14.80;87.40
9542;DHT22;4809;48.224;8.572;2022-09-09T07:11:41;14.70;87.70
9542;DHT22;4809;48.224;8.572;2022-09-09T07:14:07;14.70;87.80
9542;DHT22;4809;48.224;8.572;2022-09-09T07:16:34;14.70;88.20
9542;DHT22;4809;48.224;8.572;2022-09-09T07:19:03;14.70;87.70
9542;DHT22;4809;48.224;8.572;2022-09-09T07:21:30;14.60;88.10
9542;DHT22;4809;48.224;8.572;2022-09-09T07:23:56;14.50;88.00
9542;DHT22;4809;48.224;8.572;2022-09-09T07:26:24;14.50;88.20
9542;DHT22;4809;48.224;8.572;2022-09-09T07:28:51;14.50;88.80
9542;DHT22;4809;48.224;8.572;2022-09-09T07:31:18;14.60;89.00
9542;DHT22;4809;48.224;8.572;2022-09-09T07:33:45;14.60;88.30
9542;DHT22;4809;48.224;8.572;2022-09-09T07:36:19;14.80;88.10
9542;DHT22;4809;48.224;8.572;2022-09-09T07:38:57;15.00;87.30
9542;DHT22;4809;48.224;8.572;2022-09-09T07:41:27;15.10;86.60
9542;DHT22;4809;48.224;8.572;2022-09-09T07:43:53;15.20;86.80
9542;DHT22;4809;48.224;8.572;2022-09-09T07:46:21;15.20;86.30
9542;DHT22;4809;48.224;8.572;2022-09-09T07:48:55;15.30;85.80
9542;DHT22;4809;48.224;8.572;2022-09-09T07:51:33;15.40;85.40
9542;DHT22;4809;48.224;8.572;2022-09-09T07:54:01;15.50;84.50
9542;DHT22;4809;48.224;8.572;2022-09-09T07:56:28;15.60;84.60
9542;DHT22;4809;48.224;8.572;2022-09-09T07:58:55;15.70;83.00
9542;DHT22;4809;48.224;8.572;2022-09-09T08:01:29;15.70;83.30
9542;DHT22;4809;48.224;8.572;2022-09-09T08:04:01;15.70;83.30
9542;DHT22;4809;48.224;8.572;2022-09-09T08:06:36;15.80;83.70
9542;DHT22;4809;48.224;8.572;2022-09-09T08:09:03;15.90;82.90
9542;DHT22;4809;48.224;8.572;2022-09-09T08:11:29;16.10;83.30
9542;DHT22;4809;48.224;8.572;2022-09-09T08:13:56;16.50;82.40
9542;DHT22;4809;48.224;8.572;2022-09-09T08:16:27;17.30;79.50
9542;DHT22;4809;48.224;8.572;2022-09-09T08:18:53;17.40;78.80
9542;DHT22;4809;48.224;8.572;2022-09-09T08:21:25;17.30;78.80
9542;DHT22;4809;48.224;8.572;2022-09-09T08:23:56;17.50;77.50
9542;DHT22;4809;48.224;8.572;2022-09-09T08:26:42;17.70;76.30
9542;DHT22;4809;48.224;8.572;2022-09-09T08:29:10;17.60;77.90
9542;DHT22;4809;48.224;8.572;2022-09-09T08:31:42;18.00;76.10
9542;DHT22;4809;48.224;8.572;2022-09-09T08:34:08;18.40;74.10
9542;DHT22;4809;48.224;8.572;2022-09-09T08:36:39;18.60;72.50
9542;DHT22;4809;48.224;8.572;2022-09-09T08:39:08;18.90;73.80
9542;DHT22;4809;48.224;8.572;2022-09-09T08:47:21;19.80;67.70
9542;DHT22;4809;48.224;8.572;2022-09-09T08:55:03;20.10;68.20
9542;DHT22;4809;48.224;8.572;2022-09-09T08:57:31;19.60;67.40
9542;DHT22;4809;48.224;8.572;2022-09-09T08:59:58;19.10;69.70
9542;DHT22;4809;48.224;8.572;2022-09-09T09:02:42;18.80;71.30
9542;DHT22;4809;48.224;8.572;2022-09-09T09:05:23;18.50;72.50
9542;DHT22;4809;48.224;8.572;2022-09-09T09:08:02;18.20;72.00
9542;DHT22;4809;48.224;8.572;2022-09-09T09:13:21;17.90;74.50
9542;DHT22;4809;48.224;8.572;2022-09-09T09:15:54;17.90;74.60
9542;DHT22;4809;48.224;8.572;2022-09-09T09:18:22;17.90;73.50
9542;DHT22;4809;48.224;8.572;2022-09-09T09:23:32;18.50;72.80
9542;DHT22;4809;48.224;8.572;2022-09-09T09:26:00;19.10;69.20
9542;DHT22;4809;48.224;8.572;2022-09-09T09:28:31;19.40;68.30
9542;DHT22;4809;48.224;8.572;2022-09-09T09:31:03;19.30;67.80
9542;DHT22;4809;48.224;8.572;2022-09-09T09:36:15;18.80;68.20
9542;DHT22;4809;48.224;8.572;2022-09-09T09:38:59;18.80;68.90
9542;DHT22;4809;48.224;8.572;2022-09-09T09:41:31;18.60;67.50
9542;DHT22;4809;48.224;8.572;2022-09-09T09:43:58;18.40;68.00
9542;DHT22;4809;48.224;8.572;2022-09-09T09:46:26;18.50;69.20
9542;DHT22;4809;48.224;8.572;2022-09-09T09:49:05;18.90;67.20
9542;DHT22;4809;48.224;8.572;2022-09-09T09:51:34;19.50;65.70
9542;DHT22;4809;48.224;8.572;2022-09-09T09:54:27;20.10;63.00
9542;DHT22;4809;48.224;8.572;2022-09-09T09:56:54;20.70;61.40
9542;DHT22;4809;48.224;8.572;2022-09-09T09:59:38;21.00;60.70
9542;DHT22;4809;48.224;8.572;2022-09-09T10:02:20;21.30;57.30
9542;DHT22;4809;48.224;8.572;2022-09-09T10:04:48;21.70;58.30
9542;DHT22;4809;48.224;8.572;2022-09-09T10:07:19;21.80;55.90
9542;DHT22;4809;48.224;8.572;2022-09-09T10:09:53;21.70;55.90
9542;DHT22;4809;48.224;8.572;2022-09-09T10:15:01;21.60;56.60
9542;DHT22;4809;48.224;8.572;2022-09-09T10:22:54;22.20;55.60
9542;DHT22;4809;48.224;8.572;2022-09-09T10:25:40;22.50;50.40
9542;DHT22;4809;48.224;8.572;2022-09-09T10:28:35;22.00;46.20
9542;DHT22;4809;48.224;8.572;2022-09-09T10:31:13;21.70;46.90
9542;DHT22;4809;48.224;8.572;2022-09-09T10:33:53;21.20;47.30
9542;DHT22;4809;48.224;8.572;2022-09-09T10:36:23;20.40;47.60
9542;DHT22;4809;48.224;8.572;2022-09-09T10:39:05;20.00;48.80
9542;DHT22;4809;48.224;8.572;2022-09-09T10:42:06;20.60;48.40
9542;DHT22;4809;48.224;8.572;2022-09-09T10:50:28;21.70;47.70
9542;DHT22;4809;48.224;8.572;2022-09-09T10:55:45;22.50;45.60
9542;DHT22;4809;48.224;8.572;2022-09-09T10:58:39;22.80;45.90
9542;DHT22;4809;48.224;8.572;2022-09-09T11:01:22;23.00;43.60
9542;DHT22;4809;48.224;8.572;2022-09-09T11:03:55;23.30;43.60
9542;DHT22;4809;48.224;8.572;2022-09-09T11:06:28;23.40;42.40
9542;DHT22;4809;48.224;8.572;2022-09-09T11:08:56;23.60;45.00
9542;DHT22;4809;48.224;8.572;2022-09-09T11:11:41;24.00;44.20
9542;DHT22;4809;48.224;8.572;2022-09-09T11:14:29;24.00;43.40
9542;DHT22;4809;48.224;8.572;2022-09-09T11:17:04;23.80;44.30
9542;DHT22;4809;48.224;8.572;2022-09-09T11:19:41;24.20;44.60
9542;DHT22;4809;48.224;8.572;2022-09-09T11:24:44;24.00;43.30
9542;DHT22;4809;48.224;8.572;2022-09-09T11:29:52;23.20;43.00
9542;DHT22;4809;48.224;8.572;2022-09-09T11:40:38;22.00;45.40
9542;DHT22;4809;48.224;8.572;2022-09-09T11:43:29;21.60;45.80
9542;DHT22;4809;48.224;8.572;2022-09-09T11:45:59;20.90;52.50
9542;DHT22;4809;48.224;8.572;2022-09-09T11:51:11;19.90;56.40
9542;DHT22;4809;48.224;8.572;2022-09-09T11:53:55;19.60;54.00
9542;DHT22;4809;48.224;8.572;2022-09-09T11:56:32;19.30;55.50
9542;DHT22;4809;48.224;8.572;2022-09-09T11:59:19;19.30;54.90
9542;DHT22;4809;48.224;8.572;2022-09-09T12:01:50;19.70;55.30
9542;DHT22;4809;48.224;8.572;2022-09-09T12:06:59;21.60;52.00
9542;DHT22;4809;48.224;8.572;2022-09-09T12:17:30;22.40;47.00
9542;DHT22;4809;48.224;8.572;2022-09-09T12:20:19;22.40;46.20
9542;DHT22;4809;48.224;8.572;2022-09-09T12:28:09;21.60;48.20
9542;DHT22;4809;48.224;8.572;2022-09-09T12:33:36;22.50;47.10
9542;DHT22;4809;48.224;8.572;2022-09-09T12:36:04;22.80;44.30
9542;DHT22;4809;48.224;8.572;2022-09-09T12:38:35;22.40;44.00
9542;DHT22;4809;48.224;8.572;2022-09-09T12:41:01;22.60;44.20
9542;DHT22;4809;48.224;8.572;2022-09-09T12:43:28;23.00;44.00
9542;DHT22;4809;48.224;8.572;2022-09-09T12:46:00;23.20;43.20
9542;DHT22;4809;48.224;8.572;2022-09-09T12:48:39;23.40;42.60
9542;DHT22;4809;48.224;8.572;2022-09-09T12:51:26;23.70;42.60
9542;DHT22;4809;48.224;8.572;2022-09-09T12:53:54;24.10;41.90
9542;DHT22;4809;48.224;8.572;2022-09-09T12:56:25;23.80;41.50
9542;DHT22;4809;48.224;8.572;2022-09-09T12:58:56;23.90;41.30
9542;DHT22;4809;48.224;8.572;2022-09-09T13:01:30;23.80;41.70
9542;DHT22;4809;48.224;8.572;2022-09-09T13:03:57;23.50;41.50
9542;DHT22;4809;48.224;8.572;2022-09-09T13:06:30;22.80;43.30
9542;DHT22;4809;48.224;8.572;2022-09-09T13:08:58;22.70;44.00
9542;DHT22;4809;48.224;8.572;2022-09-09T13:11:35;22.60;44.50
9542;DHT22;4809;48.224;8.572;2022-09-09T13:14:02;22.30;44.20
9542;DHT22;4809;48.224;8.572;2022-09-09T13:16:29;21.80;43.20
9542;DHT22;4809;48.224;8.572;2022-09-09T13:19:10;21.20;45.50
9542;DHT22;4809;48.224;8.572;2022-09-09T13:21:39;21.00;47.20
9542;DHT22;4809;48.224;8.572;2022-09-09T13:24:28;21.00;49.50
9542;DHT22;4809;48.224;8.572;2022-09-09T13:27:21;21.70;49.50
9542;DHT22;4809;48.224;8.572;2022-09-09T13:29:53;22.70;49.30
9542;DHT22;4809;48.224;8.572;2022-09-09T13:32:20;23.40;44.90
9542;DHT22;4809;48.224;8.572;2022-09-09T13:34:57;24.00;43.30
9542;DHT22;4809;48.224;8.572;2022-09-09T13:37:35;23.70;41.70
9542;DHT22;4809;48.224;8.572;2022-09-09T13:40:03;23.50;42.90
9542;DHT22;4809;48.224;8.572;2022-09-09T13:42:40;23.60;43.50
9542;DHT22;4809;48.224;8.572;2022-09-09T13:45:19;23.70;42.80
9542;DHT22;4809;48.224;8.572;2022-09-09T13:47:49;23.50;42.70
9542;DHT22;4809;48.224;8.572;2022-09-09T13:50:26;23.80;44.00
9542;DHT22;4809;48.224;8.572;2022-09-09T13:52:53;24.40;42.90
9542;DHT22;4809;48.224;8.572;2022-09-09T13:55:21;24.40;42.00
9542;DHT22;4809;48.224;8.572;2022-09-09T13:58:00;24.30;42.10
9542;DHT22;4809;48.224;8.572;2022-09-09T14:00:29;24.20;42.50
9542;DHT22;4809;48.224;8.572;2022-09-09T14:02:56;23.80;42.20
9542;DHT22;4809;48.224;8.572;2022-09-09T14:05:22;23.20;43.50
9542;DHT22;4809;48.224;8.572;2022-09-09T14:07:49;22.20;43.70
9542;DHT22;4809;48.224;8.572;2022-09-09T14:10:15;21.50;46.50
9542;DHT22;4809;48.224;8.572;2022-09-09T14:12:42;20.90;47.90
9542;DHT22;4809;48.224;8.572;2022-09-09T14:15:10;20.50;49.50
9542;DHT22;4809;48.224;8.572;2022-09-09T14:17:37;20.40;49.70
9542;DHT22;4809;48.224;8.572;2022-09-09T14:20:03;20.30;50.00
9542;DHT22;4809;48.224;8.572;2022-09-09T14:22:35;20.40;51.20
9542;DHT22;4809;48.224;8.572;2022-09-09T14:25:02;20.60;50.60
9542;DHT22;4809;48.224;8.572;2022-09-09T14:27:28;20.70;50.70
9542;DHT22;4809;48.224;8.572;2022-09-09T14:29:54;20.70;51.90
9542;DHT22;4809;48.224;8.572;2022-09-09T14:32:20;20.50;51.20
9542;DHT22;4809;48.224;8.572;2022-09-09T14:34:46;20.30;51.20
9542;DHT22;4809;48.224;8.572;2022-09-09T14:37:15;20.10;50.00
9542;DHT22;4809;48.224;8.572;2022-09-09T14:39:42;19.90;50.50
9542;DHT22;4809;48.224;8.572;2022-09-09T14:42:15;19.90;51.50
9542;DHT22;4809;48.224;8.572;2022-09-09T14:44:41;20.20;51.30
9542;DHT22;4809;48.224;8.572;2022-09-09T14:47:07;20.30;50.00
9542;DHT22;4809;48.224;8.572;2022-09-09T14:49:37;20.40;50.20
9542;DHT22;4809;48.224;8.572;2022-09-09T14:52:04;20.30;49.70
9542;DHT22;4809;48.224;8.572;2022-09-09T14:54:33;20.50;49.90
9542;DHT22;4809;48.224;8.572;2022-09-09T14:56:58;21.60;49.00
9542;DHT22;4809;48.224;8.572;2022-09-09T14:59:24;22.40;47.10
9542;DHT22;4809;48.224;8.572;2022-09-09T15:01:50;23.30;46.00
9542;DHT22;4809;48.224;8.572;2022-09-09T15:04:16;23.60;43.20
9542;DHT22;4809;48.224;8.572;2022-09-09T15:06:45;22.80;44.50
9542;DHT22;4809;48.224;8.572;2022-09-09T15:09:13;22.50;43.70
9542;DHT22;4809;48.224;8.572;2022-09-09T15:11:39;22.50;44.60
9542;DHT22;4809;48.224;8.572;2022-09-09T15:14:07;22.90;43.80
9542;DHT22;4809;48.224;8.572;2022-09-09T15:16:33;23.50;43.70
9542;DHT22;4809;48.224;8.572;2022-09-09T15:19:01;28.00;36.70
9542;DHT22;4809;48.224;8.572;2022-09-09T15:21:30;31.30;29.10
9542;DHT22;4809;48.224;8.572;2022-09-09T15:23:56;32.60;25.80
9542;DHT22;4809;48.224;8.572;2022-09-09T15:26:23;34.00;25.00
9542;DHT22;4809;48.224;8.572;2022-09-09T15:28:49;35.80;23.90
9542;DHT22;4809;48.224;8.572;2022-09-09T15:31:17;35.90;22.30
9542;DHT22;4809;48.224;8.572;2022-09-09T15:33:59;36.10;22.30
9542;DHT22;4809;48.224;8.572;2022-09-09T15:36:31;36.10;22.40
9542;DHT22;4809;48.224;8.572;2022-09-09T15:38:58;35.00;22.80
9542;DHT22;4809;48.224;8.572;2022-09-09T15:41:25;34.10;23.90
9542;DHT22;4809;48.224;8.572;2022-09-09T15:43:53;34.10;23.80
9542;DHT22;4809;48.224;8.572;2022-09-09T15:46:46;34.60;23.80
9542;DHT22;4809;48.224;8.572;2022-09-09T15:49:18;36.20;22.50
9542;DHT22;4809;48.224;8.572;2022-09-09T15:51:47;37.80;21.50
9542;DHT22;4809;48.224;8.572;2022-09-09T15:54:17;38.50;20.50
9542;DHT22;4809;48.224;8.572;2022-09-09T15:56:45;38.50;20.00
9542;DHT22;4809;48.224;8.572;2022-09-09T15:59:12;38.40;20.00
9542;DHT22;4809;48.224;8.572;2022-09-09T16:01:38;38.20;20.60
9542;DHT22;4809;48.224;8.572;2022-09-09T16:04:04;36.00;21.60
9542;DHT22;4809;48.224;8.572;2022-09-09T16:06:30;34.10;23.70
9542;DHT22;4809;48.224;8.572;2022-09-09T16:08:58;34.50;23.90
9542;DHT22;4809;48.224;8.572;2022-09-09T16:11:29;34.60;23.30
9542;DHT22;4809;48.224;8.572;2022-09-09T16:13:56;33.30;25.10
9542;DHT22;4809;48.224;8.572;2022-09-09T16:16:24;30.40;28.40
9542;DHT22;4809;48.224;8.572;2022-09-09T16:18:52;29.00;30.00
9542;DHT22;4809;48.224;8.572;2022-09-09T16:23:55;26.90;32.80
9542;DHT22;4809;48.224;8.572;2022-09-09T16:26:22;24.50;37.80
9542;DHT22;4809;48.224;8.572;2022-09-09T16:28:49;22.90;41.90
9542;DHT22;4809;48.224;8.572;2022-09-09T16:31:19;21.60;44.50
9542;DHT22;4809;48.224;8.572;2022-09-09T16:33:45;20.90;46.70
9542;DHT22;4809;48.224;8.572;2022-09-09T16:36:17;20.30;48.00
9542;DHT22;4809;48.224;8.572;2022-09-09T16:38:43;20.00;49.00
9542;DHT22;4809;48.224;8.572;2022-09-09T16:41:11;19.80;50.00
9542;DHT22;4809;48.224;8.572;2022-09-09T16:43:38;19.50;50.80
9542;DHT22;4809;48.224;8.572;2022-09-09T16:46:16;19.30;51.80
9542;DHT22;4809;48.224;8.572;2022-09-09T16:48:44;19.20;52.30
9542;DHT22;4809;48.224;8.572;2022-09-09T16:51:19;19.00;53.00
9542;DHT22;4809;48.224;8.572;2022-09-09T16:53:45;19.00;53.50
9542;DHT22;4809;48.224;8.572;2022-09-09T16:56:17;18.80;53.20
9542;DHT22;4809;48.224;8.572;2022-09-09T16:58:58;18.70;53.60
9542;DHT22;4809;48.224;8.572;2022-09-09T17:01:25;18.50;54.60
9542;DHT22;4809;48.224;8.572;2022-09-09T17:03:58;18.40;55.20
9542;DHT22;4809;48.224;8.572;2022-09-09T17:06:24;18.30;55.80
9542;DHT22;4809;48.224;8.572;2022-09-09T17:08:57;18.10;56.40
9542;DHT22;4809;48.224;8.572;2022-09-09T17:11:23;18.00;57.20
9542;DHT22;4809;48.224;8.572;2022-09-09T17:13:50;18.00;57.70
9542;DHT22;4809;48.224;8.572;2022-09-09T17:16:18;17.90;58.00
9542;DHT22;4809;48.224;8.572;2022-09-09T17:18:46;17.80;58.50
9542;DHT22;4809;48.224;8.572;2022-09-09T17:21:14;17.70;59.40
9542;DHT22;4809;48.224;8.572;2022-09-09T17:23:41;17.60;60.90
9542;DHT22;4809;48.224;8.572;2022-09-09T17:26:09;17.60;62.40
9542;DHT22;4809;48.224;8.572;2022-09-09T17:28:36;17.30;63.90
9542;DHT22;4809;48.224;8.572;2022-09-09T17:31:05;17.10;64.50
9542;DHT22;4809;48.224;8.572;2022-09-09T17:33:37;17.00;65.00
9542;DHT22;4809;48.224;8.572;2022-09-09T17:36:18;16.80;66.90
9542;DHT22;4809;48.224;8.572;2022-09-09T17:38:44;16.60;67.00
9542;DHT22;4809;48.224;8.572;2022-09-09T17:41:16;16.50;67.50
9542;DHT22;4809;48.224;8.572;2022-09-09T17:43:42;16.30;68.00
9542;DHT22;4809;48.224;8.572;2022-09-09T17:48:42;16.00;69.40
9542;DHT22;4809;48.224;8.572;2022-09-09T17:51:11;15.90;70.00
9542;DHT22;4809;48.224;8.572;2022-09-09T17:53:38;15.80;70.80
9542;DHT22;4809;48.224;8.572;2022-09-09T17:56:06;15.70;71.50
9542;DHT22;4809;48.224;8.572;2022-09-09T17:58:32;15.60;72.10
9542;DHT22;4809;48.224;8.572;2022-09-09T18:01:03;15.50;72.60
9542;DHT22;4809;48.224;8.572;2022-09-09T18:03:31;15.60;72.80
9542;DHT22;4809;48.224;8.572;2022-09-09T18:06:02;15.40;72.80
9542;DHT22;4809;48.224;8.572;2022-09-09T18:08:28;15.50;73.40
9542;DHT22;4809;48.224;8.572;2022-09-09T18:10:55;15.50;73.30